Time;durP1;ratioP1;P1;durP2;ratioP2;P2;SDS_P1;SDS_P2;PMS_P1;PMS_P2;Temp;Humidity;BMP_temperature;BMP_pressure;BME280_temperature;BME280_humidity;BME280_pressure;Samples;Min_cycle;Max_cycle;Signal;HPM_P1;HPM_P2
2023/02/15 00:01:59;;;;;;;62.37;27.80;;;;;1.90;102299.00;;;;10043037;29;20621;-79
2023/02/15 00:07:01;;;;;;;52.03;27.93;;;;;1.90;102296.00;;;;10041454;29;20820;-79
2023/02/15 00:12:03;;;;;;;54.47;26.23;;;;;1.70;102284.00;;;;10041682;29;20212;-79
2023/02/15 00:17:05;;;;;;;53.43;25.37;;;;;1.60;102285.00;;;;10025993;29;20253;-79
2023/02/15 00:22:07;;;;;;;51.77;25.70;;;;;1.60;102285.00;;;;10011028;29;20257;-79
2023/02/15 00:27:09;;;;;;;46.80;25.53;;;;;1.50;102271.00;;;;10011406;29;20225;-79
2023/02/15 00:32:11;;;;;;;56.80;25.87;;;;;1.40;102274.00;;;;10010453;29;20327;-79
2023/02/15 00:37:15;;;;;;;56.37;26.87;;;;;1.40;102264.00;;;;10040756;29;20232;-79
2023/02/15 00:42:21;;;;;;;49.67;23.47;;;;;1.30;102255.00;;;;10024826;29;20205;-79
2023/02/15 00:47:25;;;;;;;47.40;23.23;;;;;1.10;102259.00;;;;10039865;29;20625;-79
2023/02/15 00:52:27;;;;;;;38.80;19.90;;;;;1.00;102247.00;;;;10028298;29;20246;-79
2023/02/15 00:57:30;;;;;;;53.90;23.37;;;;;0.90;102243.00;;;;10055381;29;20226;-79
2023/02/15 01:02:32;;;;;;;43.87;21.13;;;;;0.90;102234.00;;;;10016292;29;20576;-80
2023/02/15 01:07:36;;;;;;;43.53;21.93;;;;;0.90;102230.00;;;;10032133;29;20657;-79
2023/02/15 01:12:38;;;;;;;49.47;21.20;;;;;0.90;102224.00;;;;10060617;29;20200;-79
2023/02/15 01:17:41;;;;;;;49.37;23.00;;;;;0.90;102233.00;;;;10070513;29;20208;-79
2023/02/15 01:22:43;;;;;;;47.47;23.90;;;;;1.00;102226.00;;;;10101258;29;20204;-79
2023/02/15 01:27:45;;;;;;;55.30;25.23;;;;;1.00;102227.00;;;;10050917;29;20259;-79
2023/02/15 01:32:47;;;;;;;55.53;26.50;;;;;1.00;102226.00;;;;10016956;29;20211;-79
2023/02/15 01:37:49;;;;;;;54.40;25.73;;;;;0.90;102230.00;;;;10065545;29;20874;-79
2023/02/15 01:42:54;;;;;;;57.10;25.23;;;;;0.90;102231.00;;;;10054775;29;20925;-79
2023/02/15 01:48:13;;;;;;;47.47;23.17;;;;;0.80;102222.00;;;;10069730;29;20215;-79
2023/02/15 01:53:51;;;;;;;50.20;24.60;;;;;0.80;102216.00;;;;10047287;29;20216;-79
2023/02/15 01:58:57;;;;;;;48.73;23.20;;;;;0.70;102207.00;;;;10065910;29;20212;-79
2023/02/15 02:04:04;;;;;;;46.97;25.83;;;;;0.70;102221.00;;;;10054779;29;20192;-79
2023/02/15 02:09:07;;;;;;;49.07;22.60;;;;;0.60;102206.00;;;;10069773;29;20754;-79
2023/02/15 02:14:09;;;;;;;50.13;24.57;;;;;0.50;102213.00;;;;10054333;29;20193;-80
2023/02/15 02:19:26;;;;;;;51.50;25.27;;;;;0.50;102198.00;;;;10066924;29;20205;-80
2023/02/15 02:24:34;;;;;;;66.67;28.33;;;;;0.50;102198.00;;;;10067981;29;20631;-80
2023/02/15 02:30:06;;;;;;;50.23;26.23;;;;;0.40;102193.00;;;;10013899;29;20237;-80
2023/02/15 02:35:25;;;;;;;49.83;26.67;;;;;0.40;102181.00;;;;10039640;29;20215;-80
2023/02/15 02:40:54;;;;;;;55.93;26.17;;;;;0.40;102176.00;;;;10080886;29;20582;-81
2023/02/15 02:46:13;;;;;;;55.97;24.80;;;;;0.30;102174.00;;;;10028548;29;20197;-79
2023/02/15 02:51:21;;;;;;;51.37;23.87;;;;;0.20;102170.00;;;;10031294;29;20212;-80
2023/02/15 02:56:32;;;;;;;50.27;26.20;;;;;0.20;102169.00;;;;10066587;29;20200;-80
2023/02/15 03:01:41;;;;;;;56.13;26.63;;;;;0.20;102166.00;;;;10041116;29;20229;-80
2023/02/15 03:06:52;;;;;;;50.57;25.90;;;;;0.10;102158.00;;;;10053143;29;20235;-79
2023/02/15 03:11:55;;;;;;;46.70;23.53;;;;;0.10;102154.00;;;;10083431;29;20236;-80
2023/02/15 03:16:58;;;;;;;51.83;24.70;;;;;0.00;102150.00;;;;10069480;29;20197;-80
2023/02/15 03:22:09;;;;;;;52.33;25.63;;;;;-0.10;102145.00;;;;10053827;29;20183;-80
2023/02/15 03:27:17;;;;;;;51.50;25.03;;;;;-0.10;102139.00;;;;10020638;29;20236;-80
2023/02/15 03:32:20;;;;;;;46.20;23.93;;;;;-0.20;102140.00;;;;10028469;29;20212;-80
2023/02/15 03:37:38;;;;;;;47.30;23.13;;;;;-0.20;102137.00;;;;10028012;29;20239;-80
2023/02/15 03:42:42;;;;;;;53.80;25.73;;;;;-0.20;102129.00;;;;10012303;29;20699;-80
2023/02/15 03:47:48;;;;;;;51.30;24.77;;;;;-0.20;102135.00;;;;10027408;29;20197;-80
2023/02/15 03:52:50;;;;;;;50.90;25.73;;;;;-0.20;102137.00;;;;10011476;29;20217;-80
2023/02/15 04:03:31;;;;;;;48.20;24.97;;;;;-0.20;102119.00;;;;9989483;29;20269;-81
2023/02/15 04:13:56;;;;;;;47.03;23.80;;;;;-0.30;102116.00;;;;10064227;29;20218;-80
2023/02/15 04:29:40;;;;;;;51.13;24.40;;;;;-0.20;102119.00;;;;10060036;29;20220;-80
2023/02/15 04:34:42;;;;;;;56.63;24.67;;;;;-0.20;102118.00;;;;10038830;29;20299;-80
2023/02/15 04:39:44;;;;;;;55.20;26.63;;;;;-0.20;102116.00;;;;10034295;29;20189;-80
2023/02/15 04:44:45;;;;;;;53.23;23.90;;;;;-0.20;102101.00;;;;10009108;29;20296;-80
2023/02/15 04:49:47;;;;;;;45.60;25.30;;;;;-0.30;102113.00;;;;9992058;29;20217;-80
2023/02/15 04:54:49;;;;;;;44.03;22.17;;;;;-0.40;102100.00;;;;10049210;29;20665;-80
2023/02/15 04:59:51;;;;;;;50.47;23.53;;;;;-0.40;102097.00;;;;10018692;29;20213;-80
2023/02/15 05:04:53;;;;;;;55.43;25.67;;;;;-0.40;102088.00;;;;10032969;29;20201;-80
2023/02/15 05:09:55;;;;;;;58.10;26.67;;;;;-0.20;102089.00;;;;10047104;29;20275;-80
2023/02/15 05:14:57;;;;;;;50.10;25.10;;;;;-0.10;102082.00;;;;10055096;29;20212;-80
2023/02/15 05:19:59;;;;;;;57.50;26.77;;;;;-0.20;102085.00;;;;10070722;29;20227;-81
2023/02/15 05:30:21;;;;;;;46.57;22.70;;;;;-0.30;102077.00;;;;10047830;29;20216;-80
2023/02/15 05:35:23;;;;;;;58.30;27.03;;;;;-0.30;102074.00;;;;10017163;29;20205;-80
2023/02/15 05:40:25;;;;;;;69.17;29.27;;;;;0.00;102074.00;;;;10066532;29;20813;-80
2023/02/15 05:45:28;;;;;;;63.43;28.53;;;;;0.30;102069.00;;;;10038012;29;20327;-81
2023/02/15 05:50:30;;;;;;;49.73;25.50;;;;;0.20;102063.00;;;;10036473;29;20208;-80
2023/02/15 05:55:34;;;;;;;51.73;24.27;;;;;0.00;102068.00;;;;10028221;29;20204;-80
2023/02/15 06:00:36;;;;;;;53.07;26.20;;;;;-0.10;102074.00;;;;10025382;29;20785;-80
2023/02/15 06:05:39;;;;;;;60.07;25.03;;;;;-0.20;102072.00;;;;10030335;29;20201;-80
2023/02/15 06:10:40;;;;;;;54.10;25.23;;;;;-0.20;102073.00;;;;10030293;29;20213;-80
2023/02/15 06:15:42;;;;;;;52.77;25.97;;;;;-0.20;102071.00;;;;10029892;29;20569;-80
2023/02/15 06:20:48;;;;;;;50.30;25.47;;;;;-0.30;102065.00;;;;9992109;29;20775;-80
2023/02/15 06:25:50;;;;;;;52.87;25.63;;;;;-0.30;102073.00;;;;10057447;29;20324;-81
2023/02/15 06:30:52;;;;;;;49.43;24.13;;;;;-0.30;102073.00;;;;10030291;29;20612;-81
2023/02/15 06:35:54;;;;;;;49.43;23.70;;;;;-0.40;102068.00;;;;10044948;29;20262;-80
2023/02/15 06:40:56;;;;;;;49.37;26.07;;;;;-0.50;102065.00;;;;10029428;29;20201;-81
2023/02/15 06:45:58;;;;;;;56.13;25.67;;;;;-0.50;102067.00;;;;10023083;29;20204;-80
2023/02/15 06:51:01;;;;;;;52.47;23.53;;;;;-0.60;102065.00;;;;10006214;29;20244;-80
2023/02/15 06:56:06;;;;;;;47.43;21.40;;;;;-0.70;102067.00;;;;9990103;29;20220;-80
2023/02/15 07:01:09;;;;;;;55.13;25.83;;;;;-0.60;102063.00;;;;10020446;29;20285;-82
2023/02/15 07:06:11;;;;;;;57.93;26.70;;;;;-0.40;102063.00;;;;10017633;29;20225;-81
2023/02/15 07:16:33;;;;;;;56.10;27.10;;;;;0.10;102071.00;;;;10014326;29;20214;-80
2023/02/15 07:21:36;;;;;;;68.63;27.47;;;;;0.40;102078.00;;;;10011734;29;20683;-81
2023/02/15 07:26:38;;;;;;;68.43;30.47;;;;;0.80;102070.00;;;;10028786;29;20286;-79
2023/02/15 07:31:40;;;;;;;69.40;30.57;;;;;1.30;102069.00;;;;9995905;29;20232;-79
2023/02/15 07:36:44;;;;;;;66.77;32.63;;;;;1.50;102072.00;;;;10012992;29;20209;-79
2023/02/15 07:41:46;;;;;;;78.73;33.07;;;;;1.70;102063.00;;;;9985860;29;20206;-79
2023/02/15 07:46:48;;;;;;;68.70;32.80;;;;;1.80;102053.00;;;;9987191;29;20225;-80
2023/02/15 07:51:50;;;;;;;60.00;29.87;;;;;1.90;102055.00;;;;10004137;29;20288;-81
2023/02/15 07:56:51;;;;;;;60.53;30.00;;;;;2.00;102039.00;;;;10007117;29;20200;-80
2023/02/15 08:01:56;;;;;;;67.23;30.03;;;;;2.10;102033.00;;;;10015775;29;20196;-80
2023/02/15 08:06:58;;;;;;;66.13;32.43;;;;;2.30;102024.00;;;;10027929;29;20289;-81
2023/02/15 08:11:59;;;;;;;57.30;28.80;;;;;2.40;102024.00;;;;10014313;29;20224;-80
2023/02/15 08:17:04;;;;;;;58.43;29.70;;;;;2.50;102011.00;;;;10012774;29;20193;-81
2023/02/15 08:22:09;;;;;;;59.27;29.77;;;;;2.60;102026.00;;;;10029911;29;20193;-80
2023/02/15 08:27:11;;;;;;;66.60;30.70;;;;;2.90;102036.00;;;;10003283;29;20720;-80
2023/02/15 08:32:13;;;;;;;60.87;32.90;;;;;3.20;102029.00;;;;9996288;29;20613;-80
2023/02/15 08:37:15;;;;;;;55.97;30.47;;;;;3.60;102029.00;;;;10021202;29;20679;-80
2023/02/15 08:42:17;;;;;;;63.77;31.70;;;;;4.00;102028.00;;;;10027568;29;20194;-80
2023/02/15 08:47:19;;;;;;;67.53;34.73;;;;;4.50;102036.00;;;;10042506;29;20236;-79
2023/02/15 08:52:21;;;;;;;82.00;38.60;;;;;5.20;102031.00;;;;10004436;29;20293;-80
2023/02/15 08:57:24;;;;;;;76.50;38.53;;;;;6.00;102015.00;;;;10017910;29;20221;-80
2023/02/15 09:02:26;;;;;;;67.60;35.10;;;;;6.70;102017.00;;;;10022305;29;20261;-80
2023/02/15 09:07:29;;;;;;;61.17;32.23;;;;;7.30;102004.00;;;;10006655;29;20737;-80
2023/02/15 09:12:31;;;;;;;54.67;28.97;;;;;8.00;102016.00;;;;9997266;29;20272;-80
2023/02/15 09:17:33;;;;;;;51.33;26.07;;;;;8.40;102012.00;;;;10027413;29;21041;-80
2023/02/15 09:22:34;;;;;;;47.27;25.17;;;;;8.90;102008.00;;;;10035091;29;20204;-80
2023/02/15 09:27:36;;;;;;;39.80;23.13;;;;;9.20;102005.00;;;;10023863;29;20235;-81
2023/02/15 09:32:38;;;;;;;36.37;20.47;;;;;9.60;102011.00;;;;10018156;29;20256;-80
2023/02/15 09:37:40;;;;;;;41.47;21.90;;;;;10.20;102016.00;;;;10014166;29;20851;-81
2023/02/15 09:42:48;;;;;;;39.23;20.83;;;;;10.60;102018.00;;;;10042958;29;20189;-80
2023/02/15 09:47:57;;;;;;;35.77;17.40;;;;;11.00;102015.00;;;;10019750;29;20197;-80
2023/02/15 09:53:18;;;;;;;33.47;17.50;;;;;11.50;102005.00;;;;10032074;29;20611;-80
2023/02/15 09:58:39;;;;;;;28.47;17.43;;;;;12.00;102005.00;;;;10028427;29;20553;-81
2023/02/15 10:04:11;;;;;;;30.33;17.30;;;;;12.20;102026.00;;;;10031699;29;20279;-80
2023/02/15 10:09:48;;;;;;;30.27;16.10;;;;;12.20;102024.00;;;;10017921;29;20220;-80
2023/02/15 10:15:06;;;;;;;31.80;16.57;;;;;12.40;102026.00;;;;10016258;29;20221;-80
2023/02/15 10:20:27;;;;;;;29.27;16.97;;;;;13.00;102029.00;;;;10023827;29;20215;-78
2023/02/15 10:25:44;;;;;;;33.07;17.80;;;;;13.40;102028.00;;;;10001910;29;20223;-77
2023/02/15 10:30:55;;;;;;;31.83;16.57;;;;;13.70;102033.00;;;;10020760;29;20212;-77
2023/02/15 10:36:35;;;;;;;29.60;15.67;;;;;13.90;102023.00;;;;10014321;29;20265;-80
2023/02/15 10:41:46;;;;;;;27.20;15.83;;;;;14.10;102014.00;;;;10022056;29;20735;-77
2023/02/15 10:47:20;;;;;;;33.85;17.42;;;;;14.50;102015.00;;;;10018762;29;20290;-77
2023/02/15 10:52:44;;;;;;;30.50;16.17;;;;;14.80;102020.00;;;;10018870;29;20296;-77
2023/02/15 10:57:52;;;;;;;33.08;17.92;;;;;15.00;102013.00;;;;10052910;29;20683;-79
2023/02/15 11:03:22;;;;;;;36.47;19.05;;;;;15.20;102004.00;;;;9980597;29;20217;-76
2023/02/15 11:08:26;;;;;;;32.95;18.23;;;;;15.00;102001.00;;;;10016586;29;20256;-79
2023/02/15 11:13:33;;;;;;;31.13;16.88;;;;;15.40;101997.00;;;;10003301;29;20688;-78
2023/02/15 11:18:40;;;;;;;32.28;18.20;;;;;15.70;102003.00;;;;10003503;29;20756;-77
2023/02/15 11:23:44;;;;;;;35.42;19.33;;;;;15.80;101999.00;;;;10012387;29;20691;-77
2023/02/15 11:28:56;;;;;;;32.63;17.52;;;;;15.70;102000.00;;;;10005818;29;20292;-77
2023/02/15 11:34:03;;;;;;;38.78;20.50;;;;;15.40;102004.00;;;;10003243;29;20221;-77
2023/02/15 11:39:11;;;;;;;38.15;21.42;;;;;15.20;102000.00;;;;10016891;29;20217;-77
2023/02/15 11:44:22;;;;;;;36.85;19.25;;;;;15.40;101987.00;;;;10017438;29;20205;-77
2023/02/15 11:49:30;;;;;;;36.80;20.40;;;;;16.20;101979.00;;;;9997580;29;20216;-77
2023/02/15 11:54:39;;;;;;;33.90;19.15;;;;;16.40;101972.00;;;;10010967;29;20716;-78
2023/02/15 11:59:49;;;;;;;36.88;20.20;;;;;16.50;101962.00;;;;10026681;29;20196;-78
2023/02/15 12:04:56;;;;;;;38.65;21.30;;;;;16.10;101956.00;;;;9991498;29;20201;-77
2023/02/15 12:10:19;;;;;;;37.75;20.25;;;;;16.00;101954.00;;;;10016973;29;20300;-77
2023/02/15 12:15:31;;;;;;;36.65;19.95;;;;;16.20;101952.00;;;;9989573;29;20223;-77
2023/02/15 12:20:35;;;;;;;34.65;20.42;;;;;16.10;101944.00;;;;10003331;29;20200;-78
2023/02/15 12:25:42;;;;;;;34.20;20.65;;;;;15.50;101947.00;;;;10004261;29;20228;-77
2023/02/15 12:30:44;;;;;;;31.73;18.55;;;;;15.10;101940.00;;;;10036509;29;20704;-76
2023/02/15 12:35:49;;;;;;;38.45;21.30;;;;;14.80;101927.00;;;;10014478;29;20201;-77
2023/02/15 12:41:25;;;;;;;34.05;20.80;;;;;15.00;101921.00;;;;9978635;29;20194;-77
2023/02/15 12:46:27;;;;;;;38.15;22.17;;;;;15.70;101917.00;;;;10036246;29;20259;-78
2023/02/15 12:51:30;;;;;;;38.85;20.88;;;;;16.40;101905.00;;;;9996426;29;20381;-77
2023/02/15 12:56:32;;;;;;;33.80;21.08;;;;;17.10;101901.00;;;;10010346;29;20287;-78
2023/02/15 13:01:34;;;;;;;33.63;20.30;;;;;17.50;101907.00;;;;10031611;29;20230;-77
2023/02/15 13:06:36;;;;;;;34.88;20.27;;;;;17.40;101906.00;;;;10028515;29;20304;-77
2023/02/15 13:11:41;;;;;;;31.77;18.70;;;;;16.90;101900.00;;;;9999041;29;20212;-77
2023/02/15 13:16:45;;;;;;;33.97;19.70;;;;;16.70;101913.00;;;;10034970;29;20193;-77
2023/02/15 13:21:51;;;;;;;36.22;21.13;;;;;16.70;101907.00;;;;10025232;29;20198;-78
2023/02/15 13:26:57;;;;;;;37.58;21.23;;;;;16.80;101898.00;;;;10001168;29;20231;-77
2023/02/15 13:32:18;;;;;;;35.50;20.20;;;;;17.00;101892.00;;;;10040596;29;20213;-77
2023/02/15 13:37:33;;;;;;;31.33;20.42;;;;;17.30;101896.00;;;;10025183;29;20205;-77
2023/02/15 13:42:40;;;;;;;34.03;19.58;;;;;17.30;101902.00;;;;10018990;29;20202;-77
2023/02/15 13:47:48;;;;;;;37.80;20.25;;;;;17.00;101905.00;;;;10033895;29;20618;-77
2023/02/15 13:53:17;;;;;;;36.78;21.40;;;;;16.60;101900.00;;;;10015645;29;20209;-77
2023/02/15 13:58:25;;;;;;;37.50;21.33;;;;;16.60;101890.00;;;;10016784;29;20197;-77
2023/02/15 14:03:48;;;;;;;38.80;22.85;;;;;16.80;101896.00;;;;9999882;29;20194;-77
2023/02/15 14:08:53;;;;;;;40.92;22.25;;;;;16.60;101892.00;;;;10007155;29;20251;-76
2023/02/15 14:14:12;;;;;;;37.35;23.08;;;;;16.50;101889.00;;;;10013819;29;20277;-77
2023/02/15 14:19:35;;;;;;;37.63;21.48;;;;;17.00;101892.00;;;;10010856;29;20917;-77
2023/02/15 14:24:44;;;;;;;37.42;22.95;;;;;17.60;101881.00;;;;10044359;29;20348;-76
2023/02/15 14:30:26;;;;;;;37.15;21.48;;;;;17.50;101886.00;;;;10013723;29;20663;-77
2023/02/15 14:35:30;;;;;;;43.85;25.67;;;;;16.40;101884.00;;;;9951093;29;20608;-76
2023/02/15 14:41:00;;;;;;;42.22;23.98;;;;;15.90;101887.00;;;;10007498;29;20193;-78
2023/02/15 14:46:18;;;;;;;42.97;23.33;;;;;15.30;101891.00;;;;9987425;29;20197;-77
2023/02/15 14:51:45;;;;;;;41.00;24.45;;;;;15.10;101892.00;;;;9976181;29;20204;-77
2023/02/15 14:57:08;;;;;;;50.42;28.00;;;;;15.20;101891.00;;;;10027727;29;20251;-77
2023/02/15 15:02:15;;;;;;;40.22;24.35;;;;;15.10;101891.00;;;;10003991;29;20208;-77
2023/02/15 15:07:26;;;;;;;42.65;25.17;;;;;15.00;101901.00;;;;10026202;29;20201;-76
2023/02/15 15:12:35;;;;;;;46.07;25.10;;;;;14.70;101898.00;;;;10043349;29;20232;-76
2023/02/15 15:17:38;;;;;;;41.10;23.43;;;;;14.70;101895.00;;;;10014011;29;20193;-76
2023/02/15 15:22:42;;;;;;;46.73;24.43;;;;;14.70;101874.00;;;;10018831;29;20225;-77
2023/02/15 15:27:50;;;;;;;41.67;24.83;;;;;15.60;101865.00;;;;10034366;29;20248;-79
2023/02/15 15:32:59;;;;;;;49.30;24.67;;;;;15.40;101883.00;;;;10007438;29;20212;-79
2023/02/15 15:38:19;;;;;;;38.80;24.43;;;;;14.80;101885.00;;;;10021220;29;20205;-76
2023/02/15 15:43:47;;;;;;;43.80;25.58;;;;;14.30;101878.00;;;;10017309;29;20204;-75
2023/02/15 15:48:49;;;;;;;43.30;26.73;;;;;13.80;101885.00;;;;9987444;29;20238;-79
2023/02/15 15:53:53;;;;;;;44.67;27.53;;;;;13.40;101891.00;;;;9999147;29;20209;-78
2023/02/15 15:59:02;;;;;;;50.40;27.83;;;;;13.00;101895.00;;;;10003624;29;20330;-78
2023/02/15 16:04:04;;;;;;;44.27;25.50;;;;;12.60;101891.00;;;;10005853;29;20593;-78
2023/02/15 16:09:17;;;;;;;45.20;25.87;;;;;12.30;101885.00;;;;10027019;29;20296;-78
2023/02/15 16:14:29;;;;;;;43.87;24.97;;;;;11.90;101880.00;;;;10001554;29;20213;-78
2023/02/15 16:19:36;;;;;;;50.27;25.87;;;;;11.60;101881.00;;;;10035554;29;20216;-78
2023/02/15 16:24:53;;;;;;;43.80;24.07;;;;;11.40;101885.00;;;;10017632;29;20294;-78
2023/02/15 16:29:55;;;;;;;45.27;24.47;;;;;11.10;101882.00;;;;10027915;29;20207;-78
2023/02/15 16:34:59;;;;;;;48.23;25.53;;;;;10.70;101876.00;;;;10040554;29;20241;-77
2023/02/15 16:40:01;;;;;;;46.73;25.47;;;;;10.40;101881.00;;;;10028129;29;20204;-78
2023/02/15 16:45:13;;;;;;;52.83;27.77;;;;;10.20;101885.00;;;;10043072;29;20196;-79
2023/02/15 16:50:37;;;;;;;41.80;22.90;;;;;10.00;101886.00;;;;10030494;29;20261;-79
2023/02/15 16:55:42;;;;;;;46.30;25.17;;;;;9.90;101887.00;;;;10034940;29;20610;-78
2023/02/15 17:00:44;;;;;;;46.10;24.10;;;;;9.80;101888.00;;;;10028238;29;20198;-78
2023/02/15 17:06:00;;;;;;;43.63;23.37;;;;;9.70;101879.00;;;;10013648;29;20737;-78
2023/02/15 17:11:18;;;;;;;43.50;23.23;;;;;9.60;101873.00;;;;10030225;29;20204;-78
2023/02/15 17:16:26;;;;;;;41.60;23.37;;;;;9.30;101860.00;;;;10022615;29;20197;-78
2023/02/15 17:21:37;;;;;;;45.23;24.43;;;;;9.20;101874.00;;;;10001460;29;20206;-78
2023/02/15 17:26:39;;;;;;;45.80;25.20;;;;;9.10;101876.00;;;;10025066;29;20624;-78
2023/02/15 17:31:48;;;;;;;48.70;24.90;;;;;9.00;101873.00;;;;10049521;29;20213;-78
2023/02/15 17:37:02;;;;;;;46.93;24.23;;;;;9.00;101887.00;;;;10012265;29;20244;-77
2023/02/15 17:42:04;;;;;;;44.77;24.90;;;;;8.90;101887.00;;;;10022442;29;20208;-78
2023/02/15 17:47:06;;;;;;;46.90;25.57;;;;;8.80;101887.00;;;;10008158;29;20557;-78
2023/02/15 17:52:13;;;;;;;47.93;27.10;;;;;8.60;101891.00;;;;10038255;29;20257;-79
2023/02/15 17:57:15;;;;;;;49.87;27.00;;;;;8.50;101883.00;;;;10010922;29;20206;-78
2023/02/15 18:12:58;;;;;;;48.70;26.00;;;;;8.40;101910.00;;;;10031243;29;20962;-78
2023/02/15 18:18:01;;;;;;;46.83;26.73;;;;;8.40;101907.00;;;;10041685;29;20201;-78
2023/02/15 18:23:03;;;;;;;45.57;25.17;;;;;8.30;101902.00;;;;10012374;29;20253;-77
2023/02/15 18:28:09;;;;;;;51.77;25.37;;;;;8.30;101917.00;;;;10021862;29;20233;-78
2023/02/15 18:33:35;;;;;;;48.13;25.53;;;;;8.30;101918.00;;;;10024592;29;20648;-78
2023/02/15 18:38:37;;;;;;;50.50;28.43;;;;;8.30;101933.00;;;;10024373;29;20217;-79
2023/02/15 18:43:39;;;;;;;48.27;26.03;;;;;8.20;101926.00;;;;10053582;29;20201;-77
2023/02/15 18:48:41;;;;;;;54.40;27.43;;;;;8.30;101940.00;;;;10027535;29;20229;-77
2023/02/15 18:53:44;;;;;;;46.63;26.30;;;;;8.50;101948.00;;;;10027504;29;20213;-78
2023/02/15 18:58:46;;;;;;;48.63;27.23;;;;;8.60;101943.00;;;;9996580;29;20197;-78
2023/02/15 19:03:50;;;;;;;47.07;27.00;;;;;8.70;101954.00;;;;10054102;29;20213;-78
2023/02/15 19:08:52;;;;;;;49.27;28.37;;;;;8.70;101945.00;;;;10011712;29;20201;-79
2023/02/15 19:13:55;;;;;;;46.60;25.37;;;;;8.50;101948.00;;;;9973212;29;20872;-78
2023/02/15 19:18:57;;;;;;;49.07;25.30;;;;;8.30;101940.00;;;;9988374;29;20205;-78
2023/02/15 19:24:05;;;;;;;45.60;25.87;;;;;8.10;101935.00;;;;10037898;29;20238;-78
2023/02/15 19:29:11;;;;;;;45.33;25.60;;;;;7.90;101944.00;;;;10023372;29;20284;-78
2023/02/15 19:34:17;;;;;;;51.60;27.50;;;;;7.70;101956.00;;;;10024679;29;20231;-78
2023/02/15 19:39:25;;;;;;;49.47;27.03;;;;;7.50;101963.00;;;;9997358;29;20204;-78
2023/02/15 19:44:27;;;;;;;51.90;26.93;;;;;7.40;101952.00;;;;10008158;29;20190;-78
2023/02/15 19:49:29;;;;;;;53.23;26.20;;;;;7.50;101944.00;;;;10029986;29;20198;-79
2023/02/15 19:54:34;;;;;;;48.63;27.17;;;;;7.50;101946.00;;;;10014135;29;20213;-79
2023/02/15 19:59:36;;;;;;;46.57;24.97;;;;;7.40;101945.00;;;;10030094;29;20205;-78
2023/02/15 20:04:39;;;;;;;45.03;24.43;;;;;7.30;101947.00;;;;10024019;29;20645;-78
2023/02/15 20:09:42;;;;;;;48.10;24.40;;;;;7.30;101951.00;;;;10015255;29;20202;-77
2023/02/15 20:14:44;;;;;;;41.37;23.43;;;;;7.10;101947.00;;;;10015290;29;20809;-78
2023/02/15 20:19:46;;;;;;;41.97;24.63;;;;;7.00;101950.00;;;;10030036;29;20192;-77
2023/02/15 20:24:49;;;;;;;45.93;24.23;;;;;6.90;101967.00;;;;10013809;29;20249;-79
2023/02/15 20:29:54;;;;;;;42.57;22.80;;;;;6.80;101964.00;;;;10002193;29;20201;-78
2023/02/15 20:34:56;;;;;;;40.73;22.40;;;;;6.70;101961.00;;;;10034875;29;20308;-78
2023/02/15 20:39:58;;;;;;;44.50;23.37;;;;;6.70;101951.00;;;;10008420;29;20567;-78
2023/02/15 20:45:01;;;;;;;45.53;24.90;;;;;6.80;101959.00;;;;10025170;29;20297;-78
2023/02/15 20:50:04;;;;;;;51.73;25.77;;;;;6.80;101948.00;;;;10041829;29;20773;-78
2023/02/15 20:55:19;;;;;;;44.83;23.60;;;;;6.60;101961.00;;;;10006338;29;20209;-79
2023/02/15 21:00:26;;;;;;;45.93;25.00;;;;;6.50;101965.00;;;;10023741;29;20257;-79
2023/02/15 21:05:32;;;;;;;39.40;23.00;;;;;6.50;101956.00;;;;10016194;29;20229;-77
2023/02/15 21:10:34;;;;;;;46.60;24.10;;;;;6.30;101954.00;;;;9982035;29;20217;-79
2023/02/15 21:15:40;;;;;;;45.17;23.80;;;;;6.20;101961.00;;;;10016536;29;20207;-78
2023/02/15 21:20:45;;;;;;;45.20;24.50;;;;;6.30;101950.00;;;;10016510;29;20211;-79
2023/02/15 21:25:47;;;;;;;40.13;23.93;;;;;6.30;101957.00;;;;9999323;29;20232;-78
2023/02/15 21:30:51;;;;;;;48.23;25.87;;;;;6.20;101949.00;;;;10016729;29;22653;-78
2023/02/15 21:35:56;;;;;;;44.83;23.97;;;;;6.00;101951.00;;;;9993543;29;20232;-79
2023/02/15 21:47:49;;;;;;;39.83;23.23;;;;;5.80;101958.00;;;;10004620;29;20197;-79
2023/02/15 21:57:02;;;;;;;41.90;23.57;;;;;5.70;101940.00;;;;10035090;29;20201;-79
2023/02/15 22:02:33;;;;;;;44.23;22.50;;;;;5.80;101950.00;;;;10018281;29;20198;-78
2023/02/15 22:07:35;;;;;;;45.20;23.77;;;;;5.90;101951.00;;;;10024232;29;20211;-78
2023/02/15 22:12:39;;;;;;;43.17;23.67;;;;;5.90;101937.00;;;;10013723;29;20767;-78
2023/02/15 22:17:40;;;;;;;43.83;23.33;;;;;5.80;101942.00;;;;10042364;29;20224;-78
2023/02/15 22:22:42;;;;;;;46.40;23.90;;;;;5.60;101943.00;;;;10026738;29;20265;-79
2023/02/15 22:27:45;;;;;;;44.53;23.63;;;;;5.50;101926.00;;;;10009908;29;20217;-78
2023/02/15 22:32:48;;;;;;;45.90;23.83;;;;;5.50;101945.00;;;;10014436;29;20245;-79
2023/02/15 22:37:49;;;;;;;43.10;23.10;;;;;5.40;101943.00;;;;9993521;29;20305;-78
2023/02/15 22:42:53;;;;;;;48.73;23.27;;;;;5.30;101940.00;;;;10007553;29;20452;-78
2023/02/15 22:47:58;;;;;;;46.07;24.57;;;;;5.20;101946.00;;;;10012542;29;20717;-79
2023/02/15 22:53:01;;;;;;;40.37;23.30;;;;;5.30;101941.00;;;;10042117;29;20202;-78
2023/02/15 22:58:04;;;;;;;43.80;22.93;;;;;5.30;101932.00;;;;10024943;29;20665;-78
2023/02/15 23:03:18;;;;;;;41.60;23.40;;;;;5.50;101930.00;;;;10040619;29;20200;-78
2023/02/15 23:08:20;;;;;;;44.67;22.10;;;;;5.70;101925.00;;;;10011148;29;20193;-79
2023/02/15 23:13:29;;;;;;;47.53;24.30;;;;;5.70;101923.00;;;;10002741;29;20222;-78
2023/02/15 23:18:36;;;;;;;42.77;24.73;;;;;5.70;101929.00;;;;10000315;29;20200;-79
2023/02/15 23:23:40;;;;;;;40.67;21.77;;;;;5.70;101929.00;;;;10024811;29;20249;-79
2023/02/15 23:28:42;;;;;;;43.13;23.30;;;;;5.60;101933.00;;;;10028532;29;20227;-79
2023/02/15 23:33:45;;;;;;;44.53;24.47;;;;;5.60;101929.00;;;;10044349;29;20221;-79
2023/02/15 23:38:47;;;;;;;46.63;24.00;;;;;5.60;101930.00;;;;10039263;29;20209;-79
2023/02/15 23:43:59;;;;;;;48.30;24.77;;;;;5.60;101937.00;;;;10056148;29;20200;-79
2023/02/15 23:49:13;;;;;;;44.10;22.93;;;;;5.40;101928.00;;;;10025260;29;20728;-79
2023/02/15 23:54:17;;;;;;;44.73;23.70;;;;;5.40;101926.00;;;;10026479;29;20227;-79
2023/02/15 23:59:24;;;;;;;47.30;24.93;;;;;5.30;101922.00;;;;10009467;29;20211;-79
